createdAt,value
2022-12-19T00:01:49.329Z,5.14
2022-12-19T00:05:13.503Z,5.05
2022-12-19T00:08:35.535Z,5.13
2022-12-19T00:11:57.456Z,5.13
2022-12-19T00:15:19.393Z,4.98
2022-12-19T00:18:44.945Z,4.76
2022-12-19T00:22:11.394Z,5.12
2022-12-19T00:25:33.363Z,5.01
2022-12-19T00:28:59.839Z,5.08
2022-12-19T00:32:23.024Z,4.88
2022-12-19T00:35:44.932Z,5.09
2022-12-19T00:39:08.173Z,4.71
2022-12-19T00:42:41.470Z,5.00
2022-12-19T00:46:14.345Z,4.74
2022-12-19T00:49:47.444Z,5.00
2022-12-19T00:53:11.196Z,5.05
2022-12-19T00:56:37.899Z,4.88
2022-12-19T01:00:04.663Z,4.54
2022-12-19T01:03:26.519Z,4.73
2022-12-19T01:06:48.327Z,4.75
2022-12-19T01:10:10.520Z,4.88
2022-12-19T01:13:37.668Z,4.94
2022-12-19T01:17:03.960Z,4.65
2022-12-19T01:20:31.855Z,4.61
2022-12-19T01:24:02.740Z,5.06
2022-12-19T01:27:25.672Z,5.18
2022-12-19T01:30:48.053Z,5.20
2022-12-19T01:34:11.031Z,5.10
2022-12-19T01:37:32.929Z,5.31
2022-12-19T01:40:57.677Z,5.05
2022-12-19T01:44:26.003Z,4.89
2022-12-19T01:48:19.781Z,5.04
2022-12-19T01:52:06.223Z,4.93
2022-12-19T01:55:37.303Z,4.86
2022-12-19T01:59:07.908Z,4.86
2022-12-19T02:03:02.685Z,4.59
2022-12-19T02:06:27.072Z,4.75
2022-12-19T02:09:58.434Z,4.96
2022-12-19T02:13:30.555Z,5.07
2022-12-19T02:17:04.202Z,4.99
2022-12-19T02:21:19.017Z,5.27
2022-12-19T02:25:15.631Z,5.20
2022-12-19T02:29:28.525Z,5.59
2022-12-19T02:33:36.287Z,5.19
2022-12-19T02:37:10.728Z,4.94
2022-12-19T02:41:43.047Z,4.82
2022-12-19T02:45:20.799Z,4.96
2022-12-19T02:48:59.749Z,4.96
2022-12-19T02:52:21.586Z,4.69
2022-12-19T02:56:33.819Z,4.93
2022-12-19T03:00:15.558Z,4.81
2022-12-19T03:04:17.124Z,5.31
2022-12-19T03:08:14.970Z,5.44
2022-12-19T03:12:06.629Z,5.42
2022-12-19T03:15:42.801Z,5.50
2022-12-19T03:19:12.107Z,5.46
2022-12-19T03:22:37.209Z,5.63
2022-12-19T03:26:23.619Z,5.75
2022-12-19T03:29:52.442Z,5.79
2022-12-19T03:33:19.697Z,5.66
2022-12-19T03:36:48.725Z,5.66
2022-12-19T03:40:19.454Z,5.31
2022-12-19T03:43:50.473Z,5.18
2022-12-19T03:47:26.438Z,5.14
2022-12-19T03:51:29.569Z,5.26
2022-12-19T03:55:41.164Z,5.80
2022-12-19T03:59:29.833Z,5.21
2022-12-19T04:02:56.283Z,5.18
2022-12-19T04:06:18.637Z,5.79
2022-12-19T04:09:43.050Z,5.93
2022-12-19T04:13:22.207Z,6.08
2022-12-19T04:17:30.468Z,5.68
2022-12-19T04:21:05.530Z,5.76
2022-12-19T04:24:37.853Z,5.56
2022-12-19T04:28:25.529Z,5.52
2022-12-19T04:31:56.779Z,5.97
2022-12-19T04:35:23.001Z,5.86
2022-12-19T04:38:44.992Z,5.95
2022-12-19T04:42:06.917Z,6.00
2022-12-19T04:45:28.734Z,5.87
2022-12-19T04:48:55.151Z,5.57
2022-12-19T04:52:21.314Z,5.63
2022-12-19T04:55:47.228Z,5.63
2022-12-19T04:59:11.311Z,5.65
2022-12-19T05:02:33.441Z,5.62
2022-12-19T05:06:08.256Z,5.64
2022-12-19T05:09:30.134Z,6.05
2022-12-19T05:12:54.865Z,6.15
2022-12-19T05:16:35.221Z,6.22
2022-12-19T05:19:57.302Z,6.00
2022-12-19T05:23:24.616Z,6.06
2022-12-19T05:26:49.293Z,6.12
2022-12-19T05:30:11.957Z,6.15
2022-12-19T05:33:34.314Z,6.37
2022-12-19T05:36:56.338Z,6.39
2022-12-19T05:40:22.813Z,6.53
2022-12-19T05:43:56.205Z,6.96
2022-12-19T05:47:21.114Z,6.95
2022-12-19T05:50:49.342Z,6.97
2022-12-19T05:54:11.198Z,6.88
2022-12-19T05:57:35.073Z,6.71
2022-12-19T06:01:33.650Z,6.98
2022-12-19T06:04:55.547Z,7.07
2022-12-19T06:08:24.269Z,7.09
2022-12-19T06:11:47.129Z,7.06
2022-12-19T06:15:10.716Z,7.15
2022-12-19T06:18:59.226Z,6.41
2022-12-19T06:22:22.059Z,7.56
2022-12-19T06:25:49.016Z,7.46
2022-12-19T06:29:11.930Z,7.56
2022-12-19T06:32:41.109Z,7.49
2022-12-19T06:36:08.079Z,7.48
2022-12-19T06:39:30.275Z,7.44
2022-12-19T06:42:54.109Z,7.61
2022-12-19T06:46:40.021Z,7.40
2022-12-19T06:50:02.452Z,7.58
2022-12-19T06:53:25.040Z,7.95
2022-12-19T06:56:46.971Z,8.00
2022-12-19T07:00:10.349Z,8.06
2022-12-19T07:03:41.295Z,8.07
2022-12-19T07:07:10.264Z,8.29
2022-12-19T07:10:32.201Z,8.50
2022-12-19T07:13:54.125Z,8.43
2022-12-19T07:17:16.272Z,8.27
2022-12-19T07:20:45.032Z,8.30
2022-12-19T07:24:12.173Z,7.94
2022-12-19T07:27:41.879Z,8.17
2022-12-19T07:31:04.220Z,8.11
2022-12-19T07:34:30.049Z,8.41
2022-12-19T07:37:51.964Z,8.09
2022-12-19T07:41:13.837Z,7.98
2022-12-19T07:44:35.872Z,8.28
2022-12-19T07:48:01.943Z,8.20
2022-12-19T07:51:35.865Z,8.51
2022-12-19T07:54:57.758Z,8.59
2022-12-19T07:58:24.706Z,8.12
2022-12-19T08:01:46.701Z,8.02
2022-12-19T08:05:14.983Z,8.32
2022-12-19T08:08:37.727Z,8.29
2022-12-19T08:11:59.607Z,8.45
2022-12-19T08:15:21.506Z,8.52
2022-12-19T08:18:47.904Z,8.43
2022-12-19T08:22:10.712Z,8.54
2022-12-19T08:25:33.842Z,8.68
2022-12-19T08:28:58.302Z,8.62
2022-12-19T08:32:25.261Z,8.82
2022-12-19T08:36:06.771Z,8.78
2022-12-19T08:39:28.547Z,9.01
2022-12-19T08:42:50.947Z,8.84
2022-12-19T08:46:12.804Z,9.15
2022-12-19T08:49:34.673Z,9.49
2022-12-19T08:52:58.544Z,9.13
2022-12-19T08:56:22.509Z,9.21
2022-12-19T08:59:44.565Z,9.53
2022-12-19T09:03:09.363Z,9.55
2022-12-19T09:06:34.668Z,9.68
2022-12-19T09:09:57.701Z,9.76
2022-12-19T09:13:20.463Z,10.30
2022-12-19T09:16:42.567Z,9.80
2022-12-19T09:20:06.061Z,9.75
2022-12-19T09:23:34.835Z,9.84
2022-12-19T09:27:04.742Z,9.86
2022-12-19T09:30:28.980Z,10.09
2022-12-19T09:33:56.245Z,10.46
2022-12-19T09:37:18.848Z,9.92
2022-12-19T09:40:58.713Z,10.13
2022-12-19T09:44:53.098Z,9.68
2022-12-19T09:48:24.560Z,9.38
2022-12-19T09:52:14.897Z,8.89
2022-12-19T09:55:41.631Z,8.82
2022-12-19T10:00:02.728Z,9.55
2022-12-19T10:03:39.783Z,9.81
2022-12-19T10:07:21.260Z,9.86
2022-12-19T10:12:39.117Z,10.27
2022-12-19T10:15:28.694Z,10.49
2022-12-19T10:18:57.128Z,10.59
2022-12-19T10:23:03.153Z,10.84
2022-12-19T10:26:54.154Z,11.14
2022-12-19T10:30:22.201Z,11.39
2022-12-19T10:34:16.868Z,11.41
2022-12-19T10:38:04.532Z,11.39
2022-12-19T10:41:35.806Z,11.53
2022-12-19T10:45:20.930Z,11.37
2022-12-19T10:48:43.833Z,11.30
2022-12-19T10:52:09.502Z,11.81
2022-12-19T10:55:49.866Z,11.53
2022-12-19T10:59:24.002Z,11.64
2022-12-19T11:02:51.606Z,11.48
2022-12-19T11:06:35.227Z,11.70
2022-12-19T11:10:40.949Z,11.73
2022-12-19T11:19:22.313Z,11.72
2022-12-19T11:26:16.979Z,12.00
2022-12-19T11:29:32.310Z,11.83
2022-12-19T11:30:07.044Z,11.97
2022-12-19T11:30:37.769Z,11.89
2022-12-19T11:32:45.477Z,12.02
2022-12-19T11:36:30.739Z,12.16
2022-12-19T11:40:01.928Z,12.43
2022-12-19T11:43:45.077Z,12.98
2022-12-19T11:47:52.818Z,13.04
2022-12-19T11:51:43.009Z,13.09
2022-12-19T11:55:26.565Z,13.36
2022-12-19T11:58:59.079Z,13.44
2022-12-19T12:03:10.309Z,12.20
2022-12-19T12:06:47.720Z,12.49
2022-12-19T12:14:42.260Z,12.45
2022-12-19T12:26:13.253Z,12.51
2022-12-19T12:31:00.548Z,12.64
2022-12-19T12:31:48.511Z,12.93
2022-12-19T12:31:48.721Z,12.76
2022-12-19T12:39:42.227Z,12.49
2022-12-19T12:43:16.035Z,12.81
2022-12-19T12:46:49.834Z,12.77
2022-12-19T12:50:18.228Z,12.82
2022-12-19T12:53:45.553Z,12.53
2022-12-19T12:57:20.933Z,12.94
2022-12-19T13:01:10.260Z,13.00
2022-12-19T13:04:54.429Z,12.83
2022-12-19T13:08:35.724Z,12.76
2022-12-19T13:12:22.293Z,12.78
2022-12-19T13:15:45.075Z,12.76
2022-12-19T13:19:53.060Z,12.44
2022-12-19T13:23:42.935Z,12.60
2022-12-19T13:27:20.916Z,12.54
2022-12-19T13:31:16.090Z,12.67
2022-12-19T13:35:37.608Z,12.64
2022-12-19T13:39:56.271Z,12.30
2022-12-19T13:42:53.933Z,12.40
2022-12-19T13:46:44.451Z,12.10
2022-12-19T13:50:29.552Z,12.17
2022-12-19T13:53:59.591Z,12.20
2022-12-19T13:57:24.948Z,12.44
2022-12-19T14:00:53.535Z,12.02
2022-12-19T14:04:28.957Z,12.29
2022-12-19T14:07:52.207Z,12.26
2022-12-19T14:11:36.934Z,12.14
2022-12-19T14:15:14.729Z,12.11
2022-12-19T14:18:45.253Z,12.04
2022-12-19T14:22:26.642Z,12.37
2022-12-19T14:28:19.305Z,12.29
2022-12-19T14:30:30.772Z,11.90
2022-12-19T14:34:04.642Z,11.69
2022-12-19T14:39:20.655Z,12.04
2022-12-19T14:41:47.373Z,11.89
2022-12-19T14:54:09.327Z,11.93
2022-12-19T14:54:14.694Z,12.07
2022-12-19T14:54:22.927Z,11.71
2022-12-19T14:57:25.631Z,11.48
2022-12-19T15:01:23.542Z,11.41
2022-12-19T15:05:00.198Z,11.22
2022-12-19T15:09:34.256Z,11.60
2022-12-19T15:14:37.439Z,11.52
2022-12-19T15:16:36.773Z,11.74
2022-12-19T15:19:58.750Z,11.50
2022-12-19T15:23:22.582Z,11.56
2022-12-19T15:26:52.683Z,11.62
2022-12-19T15:30:21.318Z,11.62
2022-12-19T15:34:06.610Z,11.37
2022-12-19T15:37:25.221Z,11.54
2022-12-19T15:40:47.839Z,11.70
2022-12-19T15:44:40.890Z,11.42
2022-12-19T15:48:02.774Z,11.11
2022-12-19T15:51:24.665Z,10.93
2022-12-19T15:54:50.041Z,10.92
2022-12-19T15:58:14.726Z,11.18
2022-12-19T16:01:37.706Z,11.08
2022-12-19T16:05:03.950Z,10.84
2022-12-19T16:08:28.099Z,10.87
2022-12-19T16:11:52.626Z,10.89
2022-12-19T16:15:29.544Z,10.85
2022-12-19T16:18:51.482Z,10.49
2022-12-19T16:22:19.488Z,10.20
2022-12-19T16:25:50.318Z,10.10
2022-12-19T16:29:29.320Z,10.26
2022-12-19T16:32:51.433Z,10.22
2022-12-19T16:36:13.348Z,10.31
2022-12-19T16:39:35.332Z,10.23
2022-12-19T16:43:06.459Z,10.30
2022-12-19T16:46:30.854Z,10.40
2022-12-19T16:49:52.703Z,10.34
2022-12-19T16:53:20.029Z,10.60
2022-12-19T16:56:56.157Z,10.74
2022-12-19T17:00:23.250Z,10.49
2022-12-19T17:03:45.826Z,10.42
2022-12-19T17:07:10.979Z,10.80
2022-12-19T17:10:34.184Z,10.63
2022-12-19T17:14:13.100Z,10.68
2022-12-19T17:17:35.241Z,10.42
2022-12-19T17:20:57.410Z,10.57
2022-12-19T17:24:19.957Z,10.54
2022-12-19T17:27:41.889Z,10.40
2022-12-19T17:31:19.270Z,10.47
2022-12-19T17:34:43.739Z,10.84
2022-12-19T17:38:05.585Z,10.99
2022-12-19T17:41:30.373Z,11.33
2022-12-19T17:44:52.267Z,11.72
2022-12-19T17:48:32.286Z,11.09
2022-12-19T17:51:56.067Z,11.04
2022-12-19T17:55:30.520Z,11.02
2022-12-19T17:58:52.436Z,11.00
2022-12-19T18:02:24.726Z,11.04
2022-12-19T18:05:48.097Z,10.99
2022-12-19T18:09:21.881Z,11.30
2022-12-19T18:12:43.791Z,11.05
2022-12-19T18:16:13.739Z,11.75
2022-12-19T18:19:35.966Z,11.48
2022-12-19T18:23:00.378Z,11.51
2022-12-19T18:26:22.733Z,11.59
2022-12-19T18:29:45.067Z,11.86
2022-12-19T18:33:08.221Z,12.28
2022-12-19T18:36:40.018Z,11.92
2022-12-19T18:40:01.989Z,12.13
2022-12-19T18:43:26.952Z,12.18
2022-12-19T18:46:52.070Z,12.10
2022-12-19T18:50:17.728Z,12.23
2022-12-19T18:53:39.640Z,12.15
2022-12-19T18:57:03.495Z,11.92
2022-12-19T19:00:27.906Z,12.09
2022-12-19T19:03:59.259Z,12.08
2022-12-19T19:07:23.370Z,12.09
2022-12-19T19:10:47.886Z,12.53
2022-12-19T19:14:13.650Z,12.78
2022-12-19T19:17:35.594Z,12.58
2022-12-19T19:21:01.208Z,12.60
2022-12-19T19:24:23.795Z,12.72
2022-12-19T19:27:47.757Z,12.76
2022-12-19T19:31:16.036Z,12.57
2022-12-19T19:34:40.609Z,12.63
2022-12-19T19:38:07.480Z,12.68
2022-12-19T19:41:32.889Z,12.91
2022-12-19T19:44:54.887Z,12.65
2022-12-19T19:48:17.785Z,12.37
2022-12-19T19:51:39.673Z,12.33
2022-12-19T19:55:09.426Z,13.14
2022-12-19T19:58:32.099Z,13.36
2022-12-19T20:01:54.326Z,13.35
2022-12-19T20:05:17.298Z,13.37
2022-12-19T20:08:40.994Z,13.34
2022-12-19T20:12:03.449Z,13.47
2022-12-19T20:15:25.450Z,13.39
2022-12-19T20:18:51.023Z,13.34
2022-12-19T20:22:20.055Z,13.39
2022-12-19T20:25:43.142Z,13.43
2022-12-19T20:29:11.334Z,13.58
2022-12-19T20:32:40.178Z,13.63
2022-12-19T20:36:12.141Z,13.43
2022-12-19T20:39:34.384Z,13.40
2022-12-19T20:42:56.259Z,13.32
2022-12-19T20:46:21.204Z,13.38
2022-12-19T20:49:44.344Z,13.69
2022-12-19T20:53:07.183Z,13.57
2022-12-19T20:56:31.658Z,13.58
2022-12-19T20:59:53.543Z,13.37
2022-12-19T21:03:27.897Z,13.61
2022-12-19T21:06:50.641Z,13.58
2022-12-19T21:10:13.823Z,13.58
2022-12-19T21:13:37.848Z,13.73
2022-12-19T21:17:00.734Z,13.71
2022-12-19T21:20:22.665Z,13.78
2022-12-19T21:23:45.362Z,13.51
2022-12-19T21:27:07.301Z,13.62
2022-12-19T21:30:29.207Z,13.75
2022-12-19T21:33:55.897Z,13.70
2022-12-19T21:37:19.863Z,13.84
2022-12-19T21:40:41.754Z,13.87
2022-12-19T21:44:04.059Z,13.80
2022-12-19T21:47:25.931Z,13.93
2022-12-19T21:50:55.935Z,14.11
2022-12-19T21:54:17.747Z,13.89
2022-12-19T21:57:41.931Z,13.70
2022-12-19T22:01:16.080Z,13.51
2022-12-19T22:04:38.271Z,13.82
2022-12-19T22:08:01.267Z,13.82
2022-12-19T22:11:23.685Z,13.75
2022-12-19T22:14:45.836Z,13.94
2022-12-19T22:18:11.182Z,13.60
2022-12-19T22:21:34.821Z,13.82
2022-12-19T22:24:56.620Z,13.80
2022-12-19T22:28:18.512Z,13.61
2022-12-19T22:31:40.706Z,13.47
2022-12-19T22:35:02.854Z,13.77
2022-12-19T22:38:24.759Z,13.63
2022-12-19T22:41:46.845Z,13.78
2022-12-19T22:45:09.199Z,13.91
2022-12-19T22:48:31.085Z,13.89
2022-12-19T22:51:52.884Z,13.90
2022-12-19T22:55:16.957Z,14.00
2022-12-19T22:58:42.977Z,13.96
2022-12-19T23:02:05.063Z,13.90
2022-12-19T23:05:37.318Z,13.98
2022-12-19T23:09:00.058Z,14.05
2022-12-19T23:12:21.985Z,13.93
2022-12-19T23:15:44.208Z,13.93
2022-12-19T23:19:08.945Z,14.14
2022-12-19T23:22:30.961Z,13.69
2022-12-19T23:25:52.811Z,13.87
2022-12-19T23:29:16.231Z,13.86
2022-12-19T23:32:38.116Z,14.03
2022-12-19T23:36:00.655Z,13.54
2022-12-19T23:39:22.497Z,13.47
2022-12-19T23:42:44.696Z,13.19
2022-12-19T23:46:12.078Z,13.06
2022-12-19T23:49:34.170Z,12.77
2022-12-19T23:52:56.094Z,12.87
2022-12-19T23:56:24.964Z,12.90
2022-12-19T23:59:46.852Z,12.86
